createdAt,value
2023-04-20T00:01:01.434Z,8.40
2023-04-20T00:02:04.159Z,8.40
2023-04-20T00:03:07.782Z,8.30
2023-04-20T00:04:10.260Z,8.30
2023-04-20T00:05:13.954Z,8.30
2023-04-20T00:06:17.997Z,8.30
2023-04-20T00:07:21.528Z,8.30
2023-04-20T00:08:26.231Z,8.30
2023-04-20T00:09:28.689Z,8.30
2023-04-20T00:10:32.146Z,8.20
2023-04-20T00:11:34.600Z,8.20
2023-04-20T00:12:38.105Z,8.20
2023-04-20T00:13:40.667Z,8.20
2023-04-20T00:14:43.940Z,8.20
2023-04-20T00:15:46.443Z,8.20
2023-04-20T00:16:50.274Z,8.20
2023-04-20T00:17:53.697Z,8.10
2023-04-20T00:18:57.514Z,8.10
2023-04-20T00:19:59.947Z,8.10
2023-04-20T00:21:03.373Z,8.10
2023-04-20T00:22:05.830Z,8.10
2023-04-20T00:23:09.354Z,8.00
2023-04-20T00:24:13.102Z,8.00
2023-04-20T00:25:16.586Z,8.00
2023-04-20T00:26:20.899Z,8.00
2023-04-20T00:27:27.586Z,8.00
2023-04-20T00:28:30.363Z,8.00
2023-04-20T00:29:34.107Z,8.00
2023-04-20T00:30:36.798Z,8.00
2023-04-20T00:31:41.306Z,7.90
2023-04-20T00:32:43.783Z,7.90
2023-04-20T00:33:47.273Z,7.90
2023-04-20T00:34:49.660Z,7.90
2023-04-20T00:35:54.058Z,7.90
2023-04-20T00:36:59.351Z,7.90
2023-04-20T00:38:03.010Z,7.90
2023-04-20T00:39:05.901Z,7.90
2023-04-20T00:40:11.885Z,7.90
2023-04-20T00:41:14.377Z,7.90
2023-04-20T00:42:17.812Z,7.90
2023-04-20T00:43:22.017Z,7.90
2023-04-20T00:44:27.911Z,7.90
2023-04-20T00:45:30.287Z,7.80
2023-04-20T00:46:33.787Z,7.80
2023-04-20T00:47:36.360Z,7.80
2023-04-20T00:48:39.801Z,7.80
2023-04-20T00:49:42.386Z,7.80
2023-04-20T00:50:47.926Z,7.80
2023-04-20T00:51:50.625Z,7.80
2023-04-20T00:52:54.251Z,7.80
2023-04-20T00:53:57.095Z,7.80
2023-04-20T00:55:03.298Z,7.80
2023-04-20T00:56:08.358Z,7.80
2023-04-20T00:57:14.492Z,7.80
2023-04-20T00:58:16.906Z,7.70
2023-04-20T00:59:20.704Z,7.70
2023-04-20T01:00:23.428Z,7.70
2023-04-20T01:01:26.888Z,7.70
2023-04-20T01:02:29.428Z,7.70
2023-04-20T01:03:33.327Z,7.70
2023-04-20T01:04:36.743Z,7.70
2023-04-20T01:05:40.660Z,7.70
2023-04-20T01:06:43.173Z,7.70
2023-04-20T01:07:46.805Z,7.70
2023-04-20T01:08:52.051Z,7.70
2023-04-20T01:09:55.621Z,7.70
2023-04-20T01:10:58.200Z,7.70
2023-04-20T01:12:03.186Z,7.70
2023-04-20T01:13:05.608Z,7.70
2023-04-20T01:14:10.299Z,7.70
2023-04-20T01:15:13.907Z,7.70
2023-04-20T01:16:17.712Z,7.70
2023-04-20T01:17:22.291Z,7.70
2023-04-20T01:18:25.725Z,7.70
2023-04-20T01:19:28.215Z,7.70
2023-04-20T01:20:33.247Z,7.70
2023-04-20T01:21:36.505Z,7.70
2023-04-20T01:22:47.192Z,7.70
2023-04-20T01:23:50.026Z,7.70
2023-04-20T01:24:53.813Z,7.70
2023-04-20T01:25:56.228Z,7.70
2023-04-20T01:26:59.612Z,7.70
2023-04-20T01:28:04.782Z,7.70
2023-04-20T01:29:08.143Z,7.70
2023-04-20T01:30:12.982Z,7.70
2023-04-20T01:31:16.422Z,7.70
2023-04-20T01:32:18.947Z,7.80
2023-04-20T01:33:22.282Z,7.80
2023-04-20T01:34:26.942Z,7.80
2023-04-20T01:35:30.483Z,7.80
2023-04-20T01:36:33.721Z,7.80
2023-04-20T01:37:37.658Z,7.80
2023-04-20T01:38:41.874Z,7.90
2023-04-20T01:39:45.882Z,7.90
2023-04-20T01:40:48.361Z,7.90
2023-04-20T01:41:51.809Z,7.90
2023-04-20T01:42:54.402Z,7.90
2023-04-20T01:43:59.243Z,7.90
2023-04-20T01:45:01.754Z,7.90
2023-04-20T01:46:06.091Z,7.90
2023-04-20T01:47:08.642Z,7.90
2023-04-20T01:48:12.374Z,7.90
2023-04-20T01:49:14.819Z,8.00
2023-04-20T01:50:18.435Z,8.00
2023-04-20T01:51:20.787Z,7.90
2023-04-20T01:52:24.280Z,8.00
2023-04-20T01:53:27.045Z,7.90
2023-04-20T01:54:31.812Z,7.90
2023-04-20T01:55:34.533Z,7.90
2023-04-20T01:56:37.892Z,7.90
2023-04-20T01:57:40.369Z,7.90
2023-04-20T01:58:44.221Z,7.90
2023-04-20T01:59:46.609Z,7.90
2023-04-20T02:00:50.125Z,7.90
2023-04-20T02:01:52.653Z,7.90
2023-04-20T02:02:56.129Z,7.90
2023-04-20T02:03:58.795Z,7.90
2023-04-20T02:05:02.360Z,7.90
2023-04-20T02:06:06.582Z,7.90
2023-04-20T02:07:09.057Z,7.90
2023-04-20T02:08:15.368Z,7.80
2023-04-20T02:09:17.939Z,7.80
2023-04-20T02:10:22.887Z,7.80
2023-04-20T02:11:25.283Z,7.80
2023-04-20T02:12:28.708Z,7.80
2023-04-20T02:13:31.349Z,7.80
2023-04-20T02:14:35.356Z,7.80
2023-04-20T02:15:37.938Z,7.80
2023-04-20T02:16:42.657Z,7.80
2023-04-20T02:17:45.356Z,7.80
2023-04-20T02:18:48.988Z,7.80
2023-04-20T02:19:51.404Z,7.80
2023-04-20T02:20:54.938Z,7.80
2023-04-20T02:21:57.387Z,7.80
2023-04-20T02:23:00.806Z,7.80
2023-04-20T02:24:03.932Z,7.80
2023-04-20T02:25:10.453Z,7.80
2023-04-20T02:26:14.259Z,7.80
2023-04-20T02:27:17.639Z,7.80
2023-04-20T02:28:19.985Z,7.80
2023-04-20T02:29:23.525Z,7.80
2023-04-20T02:30:25.882Z,7.90
2023-04-20T02:31:32.056Z,7.90
2023-04-20T02:32:35.148Z,7.90
2023-04-20T02:33:39.168Z,7.90
2023-04-20T02:34:41.489Z,7.90
2023-04-20T02:35:44.843Z,8.00
2023-04-20T02:36:47.444Z,8.00
2023-04-20T02:37:51.261Z,8.00
2023-04-20T02:38:53.762Z,8.00
2023-04-20T02:39:57.125Z,8.00
2023-04-20T02:41:01.984Z,8.10
2023-04-20T02:42:07.201Z,8.10
2023-04-20T02:43:09.723Z,8.10
2023-04-20T02:44:14.187Z,8.20
2023-04-20T02:45:16.629Z,8.20
2023-04-20T02:46:22.099Z,8.20
2023-04-20T02:47:24.756Z,8.20
2023-04-20T02:48:30.189Z,8.30
2023-04-20T02:49:33.156Z,8.30
2023-04-20T02:50:37.997Z,8.30
2023-04-20T02:51:53.323Z,8.30
2023-04-20T02:52:56.712Z,8.30
2023-04-20T02:53:59.533Z,8.40
2023-04-20T02:55:05.994Z,8.40
2023-04-20T02:56:08.472Z,8.40
2023-04-20T02:57:21.085Z,8.40
2023-04-20T02:58:23.501Z,8.40
2023-04-20T02:59:44.239Z,8.40
2023-04-20T03:00:52.085Z,8.40
2023-04-20T03:01:55.538Z,8.40
2023-04-20T03:03:00.677Z,8.40
2023-04-20T03:04:04.814Z,8.40
2023-04-20T03:05:10.580Z,8.40
2023-04-20T03:06:19.432Z,8.40
2023-04-20T03:07:27.873Z,8.40
2023-04-20T03:08:31.666Z,8.40
2023-04-20T03:09:38.758Z,8.50
2023-04-20T03:10:52.262Z,8.50
2023-04-20T03:11:56.050Z,8.50
2023-04-20T03:13:17.789Z,8.50
2023-04-20T03:14:27.105Z,8.50
2023-04-20T03:15:30.949Z,8.50
2023-04-20T03:16:38.601Z,8.50
2023-04-20T03:17:42.187Z,8.60
2023-04-20T03:18:45.650Z,8.60
2023-04-20T03:19:49.003Z,8.60
2023-04-20T03:20:51.634Z,8.60
2023-04-20T03:21:55.058Z,8.60
2023-04-20T03:22:57.486Z,8.60
2023-04-20T03:24:02.163Z,8.60
2023-04-20T03:25:06.489Z,8.70
2023-04-20T03:26:28.635Z,8.70
2023-04-20T03:27:52.419Z,8.70
2023-04-20T03:28:56.660Z,8.70
2023-04-20T03:30:02.295Z,8.70
2023-04-20T03:31:06.596Z,8.80
2023-04-20T03:32:10.032Z,8.80
2023-04-20T03:33:12.467Z,8.80
2023-04-20T03:34:15.861Z,8.80
2023-04-20T03:35:21.132Z,8.80
2023-04-20T03:36:25.100Z,8.80
2023-04-20T03:37:27.516Z,8.80
2023-04-20T03:38:32.078Z,8.80
2023-04-20T03:39:34.470Z,8.80
2023-04-20T03:40:38.173Z,8.90
2023-04-20T03:41:40.892Z,8.90
2023-04-20T03:42:44.272Z,8.90
2023-04-20T03:43:46.695Z,8.90
2023-04-20T03:44:51.729Z,8.90
2023-04-20T03:45:54.271Z,8.90
2023-04-20T03:46:57.677Z,8.90
2023-04-20T03:48:00.160Z,8.90
2023-04-20T03:49:03.969Z,8.90
2023-04-20T03:50:07.984Z,8.90
2023-04-20T03:51:11.421Z,8.90
2023-04-20T03:52:13.825Z,9.00
2023-04-20T03:53:17.132Z,9.00
2023-04-20T03:54:19.593Z,9.00
2023-04-20T03:55:23.059Z,9.00
2023-04-20T03:56:32.334Z,9.00
2023-04-20T03:57:35.994Z,9.00
2023-04-20T03:58:39.825Z,9.00
2023-04-20T03:59:50.394Z,9.00
2023-04-20T04:01:02.527Z,9.00
2023-04-20T04:02:07.603Z,9.00
2023-04-20T04:03:10.381Z,9.00
2023-04-20T04:04:14.231Z,9.00
2023-04-20T04:05:17.509Z,9.00
2023-04-20T04:06:20.938Z,9.00
2023-04-20T04:07:23.271Z,9.00
2023-04-20T04:08:26.928Z,9.10
2023-04-20T04:09:29.780Z,9.00
2023-04-20T04:10:33.118Z,9.00
2023-04-20T04:11:35.671Z,9.00
2023-04-20T04:12:39.157Z,9.00
2023-04-20T04:13:41.714Z,9.10
2023-04-20T04:14:46.114Z,9.00
2023-04-20T04:15:52.194Z,9.10
2023-04-20T04:16:56.135Z,9.10
2023-04-20T04:17:58.740Z,9.00
2023-04-20T04:19:02.127Z,9.10
2023-04-20T04:20:08.118Z,9.10
2023-04-20T04:21:11.714Z,9.10
2023-04-20T04:22:18.065Z,9.10
2023-04-20T04:23:38.657Z,9.10
2023-04-20T04:24:50.307Z,9.10
2023-04-20T04:25:57.313Z,9.10
2023-04-20T04:27:05.659Z,9.10
2023-04-20T04:28:12.689Z,9.10
2023-04-20T04:29:25.939Z,9.10
2023-04-20T04:30:29.646Z,9.10
2023-04-20T04:31:35.015Z,9.10
2023-04-20T04:32:44.749Z,9.10
2023-04-20T04:33:49.602Z,9.10
2023-04-20T04:35:01.333Z,9.10
2023-04-20T04:36:06.259Z,9.10
2023-04-20T04:37:10.060Z,9.10
2023-04-20T04:38:18.097Z,9.10
2023-04-20T04:39:24.383Z,9.10
2023-04-20T04:40:35.085Z,9.10
2023-04-20T04:41:40.536Z,9.10
2023-04-20T04:42:53.842Z,9.10
2023-04-20T04:43:59.473Z,9.10
2023-04-20T04:45:07.486Z,9.10
2023-04-20T04:46:14.593Z,9.20
2023-04-20T04:47:19.908Z,9.10
2023-04-20T04:48:23.797Z,9.20
2023-04-20T04:49:26.734Z,9.20
2023-04-20T04:50:30.321Z,9.20
2023-04-20T04:51:33.228Z,9.20
2023-04-20T04:52:36.645Z,9.20
2023-04-20T04:53:39.006Z,9.20
2023-04-20T04:54:42.359Z,9.20
2023-04-20T04:55:44.712Z,9.20
2023-04-20T04:56:48.000Z,9.20
2023-04-20T04:57:50.385Z,9.20
2023-04-20T04:58:53.801Z,9.20
2023-04-20T04:59:56.200Z,9.20
2023-04-20T05:00:59.520Z,9.20
2023-04-20T05:02:02.010Z,9.20
2023-04-20T05:03:06.915Z,9.20
2023-04-20T05:04:09.551Z,9.20
2023-04-20T05:05:13.533Z,9.20
2023-04-20T05:06:16.113Z,9.20
2023-04-20T05:07:19.935Z,9.20
2023-04-20T05:08:24.336Z,9.20
2023-04-20T05:09:33.289Z,9.20
2023-04-20T05:10:36.852Z,9.20
2023-04-20T05:11:39.281Z,9.20
2023-04-20T05:12:42.594Z,9.20
2023-04-20T05:13:44.980Z,9.20
2023-04-20T05:14:48.695Z,9.20
2023-04-20T05:15:50.956Z,9.20
2023-04-20T05:16:54.302Z,9.20
2023-04-20T05:17:56.815Z,9.20
2023-04-20T05:19:01.507Z,9.20
2023-04-20T05:20:06.384Z,9.20
2023-04-20T05:21:09.774Z,9.20
2023-04-20T05:22:12.045Z,9.20
2023-04-20T05:23:15.564Z,9.20
2023-04-20T05:24:19.537Z,9.20
2023-04-20T05:25:23.201Z,9.20
2023-04-20T05:26:25.982Z,9.20
2023-04-20T05:27:29.384Z,9.20
2023-04-20T05:28:33.057Z,9.20
2023-04-20T05:29:36.575Z,9.20
2023-04-20T05:30:39.061Z,9.20
2023-04-20T05:31:42.538Z,9.20
2023-04-20T05:32:44.976Z,9.20
2023-04-20T05:33:48.469Z,9.20
2023-04-20T05:34:52.158Z,9.20
2023-04-20T05:35:58.080Z,9.20
2023-04-20T05:37:00.781Z,9.20
2023-04-20T05:38:06.352Z,9.20
2023-04-20T05:39:10.484Z,9.20
2023-04-20T05:40:14.050Z,9.20
2023-04-20T05:41:16.363Z,9.20
2023-04-20T05:42:19.676Z,9.20
2023-04-20T05:43:22.006Z,9.20
2023-04-20T05:44:25.324Z,9.20
2023-04-20T05:45:28.822Z,9.20
2023-04-20T05:46:31.229Z,9.20
2023-04-20T05:47:34.873Z,9.20
2023-04-20T05:48:37.224Z,9.20
2023-04-20T05:49:40.735Z,9.20
2023-04-20T05:50:44.569Z,9.10
2023-04-20T05:51:47.902Z,9.10
2023-04-20T05:52:50.381Z,9.10
2023-04-20T05:53:53.737Z,9.10
2023-04-20T05:54:56.061Z,9.10
2023-04-20T05:55:59.409Z,9.10
2023-04-20T05:57:02.941Z,9.10
2023-04-20T05:58:05.905Z,9.10
2023-04-20T05:59:09.808Z,9.10
2023-04-20T06:00:15.299Z,9.10
2023-04-20T06:01:18.716Z,9.10
2023-04-20T06:02:21.369Z,9.10
2023-04-20T06:03:25.028Z,9.00
2023-04-20T06:04:28.702Z,9.00
2023-04-20T06:05:31.418Z,9.00
2023-04-20T06:06:36.139Z,9.00
2023-04-20T06:07:38.969Z,9.00
2023-04-20T06:08:42.359Z,9.00
2023-04-20T06:09:45.129Z,9.00
2023-04-20T06:10:48.516Z,9.00
2023-04-20T06:11:50.803Z,9.00
2023-04-20T06:12:54.129Z,9.00
2023-04-20T06:13:56.458Z,9.00
2023-04-20T06:15:00.137Z,9.00
2023-04-20T06:16:02.566Z,9.00
2023-04-20T06:17:06.176Z,9.00
2023-04-20T06:18:08.662Z,9.00
2023-04-20T06:19:12.060Z,9.00
2023-04-20T06:20:14.431Z,9.00
2023-04-20T06:21:18.083Z,9.00
2023-04-20T06:22:22.009Z,9.10
2023-04-20T06:23:25.345Z,9.10
2023-04-20T06:24:28.009Z,9.10
2023-04-20T06:25:31.605Z,9.10
2023-04-20T06:26:33.948Z,9.10
2023-04-20T06:27:37.442Z,9.10
2023-04-20T06:28:40.799Z,9.20
2023-04-20T06:29:43.121Z,9.20
2023-04-20T06:30:46.796Z,9.20
2023-04-20T06:31:49.175Z,9.20
2023-04-20T06:32:52.805Z,9.30
2023-04-20T06:33:56.180Z,9.30
2023-04-20T06:34:58.458Z,9.30
2023-04-20T06:36:01.817Z,9.30
2023-04-20T06:37:08.403Z,9.40
2023-04-20T06:38:12.439Z,9.40
2023-04-20T06:39:18.457Z,9.40
2023-04-20T06:40:21.850Z,9.40
2023-04-20T06:41:24.207Z,9.40
2023-04-20T06:42:27.546Z,9.40
2023-04-20T06:43:32.658Z,9.40
2023-04-20T06:44:35.977Z,9.40
2023-04-20T06:45:38.377Z,9.40
2023-04-20T06:46:41.859Z,9.40
2023-04-20T06:47:44.271Z,9.30
2023-04-20T06:48:47.614Z,9.30
2023-04-20T06:49:49.940Z,9.30
2023-04-20T06:50:53.288Z,9.30
2023-04-20T06:51:56.603Z,9.30
2023-04-20T06:52:59.014Z,9.20
2023-04-20T06:54:03.649Z,9.20
2023-04-20T06:55:06.723Z,9.20
2023-04-20T06:56:11.423Z,9.20
2023-04-20T06:57:13.737Z,9.20
2023-04-20T06:58:17.016Z,9.20
2023-04-20T06:59:19.689Z,9.10
2023-04-20T07:00:23.496Z,9.10
2023-04-20T07:01:26.023Z,9.10
2023-04-20T07:02:29.682Z,9.10
2023-04-20T07:03:32.200Z,9.00
2023-04-20T07:04:35.626Z,9.00
2023-04-20T07:05:39.198Z,9.00
2023-04-20T07:06:41.512Z,9.00
2023-04-20T07:07:45.659Z,8.90
2023-04-20T07:08:48.066Z,8.90
2023-04-20T07:09:53.025Z,8.90
2023-04-20T07:10:56.297Z,8.90
2023-04-20T07:11:58.879Z,8.90
2023-04-20T07:13:02.160Z,8.90
2023-04-20T07:14:05.526Z,8.80
2023-04-20T07:15:09.586Z,8.80
2023-04-20T07:16:13.007Z,8.80
2023-04-20T07:17:15.384Z,8.80
2023-04-20T07:18:18.751Z,8.70
2023-04-20T07:19:21.395Z,8.70
2023-04-20T07:20:25.127Z,8.70
2023-04-20T07:21:27.423Z,8.70
2023-04-20T07:22:30.771Z,8.70
2023-04-20T07:23:34.072Z,8.70
2023-04-20T07:24:36.447Z,8.60
2023-04-20T07:25:41.181Z,8.60
2023-04-20T07:26:43.578Z,8.60
2023-04-20T07:27:46.908Z,8.60
2023-04-20T07:28:49.207Z,8.60
2023-04-20T07:29:52.589Z,8.50
2023-04-20T07:30:55.965Z,8.50
2023-04-20T07:31:58.293Z,8.40
2023-04-20T07:33:01.690Z,8.40
2023-04-20T07:34:04.085Z,8.40
2023-04-20T07:35:08.762Z,8.40
2023-04-20T07:36:12.202Z,8.30
2023-04-20T07:37:14.663Z,8.30
2023-04-20T07:38:18.138Z,8.30
2023-04-20T07:39:20.602Z,8.30
2023-04-20T07:40:24.403Z,8.20
2023-04-20T07:41:28.303Z,8.20
2023-04-20T07:42:32.970Z,8.20
2023-04-20T07:43:36.458Z,8.10
2023-04-20T07:44:38.820Z,8.10
2023-04-20T07:45:42.742Z,8.10
2023-04-20T07:46:45.110Z,8.10
2023-04-20T07:47:51.640Z,8.10
2023-04-20T07:48:54.275Z,8.10
2023-04-20T07:49:58.340Z,8.10
2023-04-20T07:51:02.025Z,8.10
2023-04-20T07:52:15.866Z,8.10
2023-04-20T07:53:20.469Z,8.10
2023-04-20T07:54:23.740Z,8.10
2023-04-20T07:55:26.112Z,8.20
2023-04-20T07:56:32.137Z,8.20
2023-04-20T07:57:35.366Z,8.20
2023-04-20T07:58:40.679Z,8.20
2023-04-20T07:59:46.496Z,8.20
2023-04-20T08:00:49.039Z,8.20
2023-04-20T08:01:53.442Z,8.20
2023-04-20T08:02:57.666Z,8.20
2023-04-20T08:04:01.173Z,8.20
2023-04-20T08:05:05.236Z,8.20
2023-04-20T08:06:08.044Z,8.20
2023-04-20T08:07:11.689Z,8.20
2023-04-20T08:08:15.076Z,8.20
2023-04-20T08:09:17.580Z,8.20
2023-04-20T08:10:21.180Z,8.20
2023-04-20T08:11:25.087Z,8.20
2023-04-20T08:12:29.949Z,8.20
2023-04-20T08:13:33.344Z,8.20
2023-04-20T08:14:35.698Z,8.20
2023-04-20T08:15:39.138Z,8.20
2023-04-20T08:16:41.800Z,8.20
2023-04-20T08:17:45.116Z,8.20
2023-04-20T08:18:48.426Z,8.20
2023-04-20T08:19:50.879Z,8.20
2023-04-20T08:20:54.298Z,8.20
2023-04-20T08:21:56.718Z,8.20
2023-04-20T08:22:59.984Z,8.10
2023-04-20T08:24:02.332Z,8.10
2023-04-20T08:25:06.367Z,8.10
2023-04-20T08:26:09.892Z,8.10
2023-04-20T08:27:12.387Z,8.10
2023-04-20T08:28:29.484Z,8.10
2023-04-20T08:29:36.658Z,8.00
2023-04-20T08:30:41.890Z,8.00
2023-04-20T08:31:44.403Z,8.00
2023-04-20T08:32:47.767Z,8.00
2023-04-20T08:33:50.330Z,8.00
2023-04-20T08:34:54.313Z,8.00
2023-04-20T08:35:56.665Z,8.00
2023-04-20T08:37:00.081Z,8.00
2023-04-20T08:38:03.494Z,8.00
2023-04-20T08:39:10.399Z,8.00
2023-04-20T08:40:14.480Z,8.10
2023-04-20T08:41:16.859Z,8.10
2023-04-20T08:42:21.086Z,8.10
2023-04-20T08:43:25.858Z,8.10
2023-04-20T08:44:29.426Z,8.20
2023-04-20T08:45:32.091Z,8.20
2023-04-20T08:46:35.909Z,8.20
2023-04-20T08:47:40.658Z,8.20
2023-04-20T08:48:46.831Z,8.20
2023-04-20T08:49:52.219Z,8.30
2023-04-20T08:50:56.953Z,8.30
2023-04-20T08:51:59.318Z,8.30
2023-04-20T08:53:03.439Z,8.40
2023-04-20T08:54:06.953Z,8.40
2023-04-20T08:55:10.792Z,8.40
2023-04-20T08:56:13.144Z,8.40
2023-04-20T08:57:16.607Z,8.40
2023-04-20T08:58:19.072Z,8.40
2023-04-20T08:59:24.079Z,8.40
2023-04-20T09:00:26.508Z,8.40
2023-04-20T09:01:35.627Z,8.40
2023-04-20T09:02:51.754Z,8.40
2023-04-20T09:03:54.668Z,8.40
2023-04-20T09:05:06.302Z,8.40
2023-04-20T09:06:19.781Z,8.40
2023-04-20T09:07:23.366Z,8.40
2023-04-20T09:08:37.505Z,8.50
2023-04-20T09:09:41.252Z,8.50
2023-04-20T09:10:46.000Z,8.50
2023-04-20T09:12:00.307Z,8.50
2023-04-20T09:13:03.666Z,8.50
2023-04-20T09:14:10.048Z,8.60
2023-04-20T09:15:27.240Z,8.60
2023-04-20T09:16:29.882Z,8.60
2023-04-20T09:17:35.094Z,8.60
2023-04-20T09:18:38.280Z,8.60
2023-04-20T09:19:44.460Z,8.70
2023-04-20T09:20:46.873Z,8.70
2023-04-20T09:21:51.034Z,8.70
2023-04-20T09:22:54.354Z,8.70
2023-04-20T09:24:00.037Z,8.70
2023-04-20T09:25:15.285Z,8.80
2023-04-20T09:26:18.911Z,8.80
2023-04-20T09:27:23.471Z,8.80
2023-04-20T09:28:38.972Z,8.90
2023-04-20T09:29:42.454Z,8.90
2023-04-20T09:30:48.768Z,9.00
2023-04-20T09:31:53.122Z,9.00
2023-04-20T09:33:03.581Z,9.10
2023-04-20T09:34:07.302Z,9.10
2023-04-20T09:35:10.269Z,9.20
2023-04-20T09:36:13.676Z,9.30
2023-04-20T09:37:17.862Z,9.50
2023-04-20T09:38:28.142Z,9.60
2023-04-20T09:39:34.112Z,9.80
2023-04-20T09:40:36.721Z,10.00
2023-04-20T09:41:42.121Z,10.20
2023-04-20T09:42:44.824Z,10.40
2023-04-20T09:43:48.434Z,10.70
2023-04-20T09:44:52.741Z,10.90
2023-04-20T09:45:56.880Z,11.20
2023-04-20T09:47:00.679Z,11.40
2023-04-20T09:48:07.643Z,11.60
2023-04-20T09:49:12.509Z,11.80
2023-04-20T09:50:26.870Z,12.00
2023-04-20T09:51:35.620Z,12.10
2023-04-20T09:52:38.344Z,12.20
2023-04-20T09:53:42.387Z,12.30
2023-04-20T09:54:46.495Z,12.40
2023-04-20T09:55:51.258Z,12.50
2023-04-20T09:56:56.889Z,12.50
2023-04-20T09:58:01.959Z,12.60
2023-04-20T09:59:05.590Z,12.60
2023-04-20T10:00:10.883Z,12.70
2023-04-20T10:01:15.928Z,12.70
2023-04-20T10:02:19.457Z,12.80
2023-04-20T10:03:23.118Z,12.80
2023-04-20T10:04:26.894Z,12.90
2023-04-20T10:05:36.898Z,13.00
2023-04-20T10:06:40.253Z,13.20
2023-04-20T10:07:42.867Z,13.30
2023-04-20T10:08:46.262Z,13.50
2023-04-20T10:09:48.612Z,13.60
2023-04-20T10:10:52.850Z,13.60
2023-04-20T10:12:07.651Z,13.60
2023-04-20T10:13:10.024Z,13.60
2023-04-20T10:14:19.812Z,13.50
2023-04-20T10:15:23.995Z,13.50
2023-04-20T10:16:28.987Z,13.50
2023-04-20T10:17:32.434Z,13.50
2023-04-20T10:18:36.099Z,13.50
2023-04-20T10:19:40.692Z,13.60
2023-04-20T10:20:44.049Z,13.60
2023-04-20T10:21:49.807Z,13.60
2023-04-20T10:22:53.412Z,13.50
2023-04-20T10:23:58.966Z,13.40
2023-04-20T10:25:03.857Z,13.30
2023-04-20T10:26:06.326Z,13.20
2023-04-20T10:27:19.287Z,13.10
2023-04-20T10:28:21.970Z,12.90
2023-04-20T10:29:26.338Z,12.80
2023-04-20T10:30:29.697Z,12.70
2023-04-20T10:31:39.892Z,12.70
2023-04-20T10:32:42.502Z,12.60
2023-04-20T10:33:56.681Z,12.50
2023-04-20T10:35:04.410Z,12.50
2023-04-20T10:36:08.078Z,12.40
2023-04-20T10:37:11.911Z,12.40
2023-04-20T10:38:16.158Z,12.40
2023-04-20T10:39:22.716Z,12.30
2023-04-20T10:40:27.148Z,12.30
2023-04-20T10:41:31.143Z,12.30
2023-04-20T10:42:43.499Z,12.30
2023-04-20T10:43:46.821Z,12.40
2023-04-20T10:44:49.423Z,12.50
2023-04-20T10:45:53.436Z,12.60
2023-04-20T10:46:57.687Z,12.70
2023-04-20T10:48:09.650Z,12.80
2023-04-20T10:49:12.470Z,12.90
2023-04-20T10:50:18.190Z,13.00
2023-04-20T10:51:21.116Z,13.00
2023-04-20T10:52:36.009Z,13.00
2023-04-20T10:53:38.323Z,13.10
2023-04-20T10:54:42.221Z,13.10
2023-04-20T10:55:44.665Z,13.10
2023-04-20T10:56:49.915Z,13.10
2023-04-20T10:57:53.254Z,13.10
2023-04-20T10:59:06.642Z,13.10
2023-04-20T11:00:17.724Z,13.00
2023-04-20T11:01:21.738Z,13.00
2023-04-20T11:02:28.136Z,13.00
2023-04-20T11:03:32.853Z,13.00
2023-04-20T11:04:37.230Z,13.10
2023-04-20T11:05:39.617Z,13.10
2023-04-20T11:06:46.780Z,13.20
2023-04-20T11:07:52.791Z,13.20
2023-04-20T11:08:56.319Z,13.30
2023-04-20T11:09:58.645Z,13.30
2023-04-20T11:11:02.065Z,13.30
2023-04-20T11:12:07.724Z,13.20
2023-04-20T11:13:22.278Z,13.20
2023-04-20T11:14:25.650Z,13.10
2023-04-20T11:15:33.573Z,13.10
2023-04-20T11:16:49.572Z,13.00
2023-04-20T11:17:55.214Z,13.00
2023-04-20T11:18:59.148Z,12.90
2023-04-20T11:20:15.590Z,12.80
2023-04-20T11:21:18.007Z,12.60
2023-04-20T11:22:23.720Z,12.50
2023-04-20T11:23:36.999Z,12.40
2023-04-20T11:24:41.282Z,12.30
2023-04-20T11:25:51.159Z,12.20
2023-04-20T11:26:56.299Z,12.10
2023-04-20T11:28:07.802Z,12.10
2023-04-20T11:29:11.549Z,12.00
2023-04-20T11:30:15.270Z,12.00
2023-04-20T11:31:18.396Z,11.90
2023-04-20T11:32:22.170Z,11.90
2023-04-20T11:33:30.680Z,11.90
2023-04-20T11:34:35.159Z,11.90
2023-04-20T11:35:38.035Z,11.90
2023-04-20T11:36:41.750Z,11.90
2023-04-20T11:37:48.865Z,11.90
2023-04-20T11:38:53.040Z,12.00
2023-04-20T11:40:04.580Z,12.00
2023-04-20T11:41:08.048Z,12.20
2023-04-20T11:42:11.430Z,12.40
2023-04-20T11:43:13.836Z,12.70
2023-04-20T11:44:17.415Z,13.00
2023-04-20T11:45:19.801Z,13.40
2023-04-20T11:46:23.228Z,13.80
2023-04-20T11:47:25.710Z,14.20
2023-04-20T11:48:32.687Z,14.70
2023-04-20T11:49:36.068Z,15.00
2023-04-20T11:50:39.713Z,15.30
2023-04-20T11:51:44.614Z,15.60
2023-04-20T11:52:47.968Z,15.70
2023-04-20T11:53:50.643Z,15.80
2023-04-20T11:54:53.983Z,15.80
2023-04-20T11:55:56.315Z,15.90
2023-04-20T11:57:00.049Z,15.90
2023-04-20T11:58:04.049Z,15.80
2023-04-20T11:59:07.455Z,15.80
2023-04-20T12:00:11.088Z,15.70
2023-04-20T12:01:18.520Z,15.60
2023-04-20T12:02:21.004Z,15.50
2023-04-20T12:03:24.619Z,15.40
2023-04-20T12:04:29.600Z,15.30
2023-04-20T12:05:32.347Z,15.20
2023-04-20T12:06:35.732Z,15.00
2023-04-20T12:07:39.291Z,14.90
2023-04-20T12:08:43.201Z,14.70
2023-04-20T12:09:45.564Z,14.60
2023-04-20T12:10:48.960Z,14.50
2023-04-20T12:11:52.279Z,14.30
2023-04-20T12:12:54.931Z,14.20
2023-04-20T12:13:58.497Z,14.10
2023-04-20T12:15:00.971Z,14.00
2023-04-20T12:16:04.395Z,13.90
2023-04-20T12:17:07.863Z,13.80
2023-04-20T12:18:10.918Z,13.70
2023-04-20T12:19:14.474Z,13.70
2023-04-20T12:20:18.384Z,13.60
2023-04-20T12:21:21.689Z,13.60
2023-04-20T12:22:24.094Z,13.50
2023-04-20T12:23:27.477Z,13.50
2023-04-20T12:24:29.928Z,13.40
2023-04-20T12:25:33.273Z,13.40
2023-04-20T12:26:38.668Z,13.30
2023-04-20T12:27:42.406Z,13.30
2023-04-20T12:28:45.373Z,13.30
2023-04-20T12:29:48.844Z,13.20
2023-04-20T12:30:52.229Z,13.20
2023-04-20T12:31:54.702Z,13.20
2023-04-20T12:32:58.190Z,13.20
2023-04-20T12:34:01.916Z,13.20
2023-04-20T12:35:04.877Z,13.20
2023-04-20T12:36:10.304Z,13.20
2023-04-20T12:37:12.763Z,13.10
2023-04-20T12:38:16.163Z,13.10
2023-04-20T12:39:18.652Z,13.10
2023-04-20T12:40:22.410Z,13.10
2023-04-20T12:41:26.076Z,13.10
2023-04-20T12:42:28.451Z,13.00
2023-04-20T12:43:31.910Z,13.00
2023-04-20T12:44:34.333Z,12.90
2023-04-20T12:45:37.696Z,12.90
2023-04-20T12:46:40.223Z,12.80
2023-04-20T12:47:43.614Z,12.80
2023-04-20T12:48:46.133Z,12.70
2023-04-20T12:49:49.540Z,12.70
2023-04-20T12:50:53.106Z,12.60
2023-04-20T12:51:56.862Z,12.60
2023-04-20T12:53:00.241Z,12.50
2023-04-20T12:54:03.061Z,12.50
2023-04-20T12:55:07.369Z,12.40
2023-04-20T12:56:11.189Z,12.40
2023-04-20T12:57:14.587Z,12.30
2023-04-20T12:58:18.125Z,12.30
2023-04-20T12:59:20.626Z,12.20
2023-04-20T13:00:24.121Z,12.20
2023-04-20T13:01:26.890Z,12.20
2023-04-20T13:02:31.320Z,12.10
2023-04-20T13:03:34.039Z,12.10
2023-04-20T13:04:37.694Z,12.10
2023-04-20T13:05:41.091Z,12.10
2023-04-20T13:06:44.308Z,12.10
2023-04-20T13:07:49.138Z,12.10
2023-04-20T13:08:51.691Z,12.10
2023-04-20T13:09:55.069Z,12.20
2023-04-20T13:10:57.438Z,12.30
2023-04-20T13:12:01.354Z,12.40
2023-04-20T13:13:04.730Z,12.50
2023-04-20T13:14:07.050Z,12.60
2023-04-20T13:15:13.030Z,12.70
2023-04-20T13:16:17.508Z,12.90
2023-04-20T13:17:21.012Z,13.00
2023-04-20T13:18:24.489Z,13.10
2023-04-20T13:19:27.967Z,13.10
2023-04-20T13:20:33.500Z,13.20
2023-04-20T13:21:35.895Z,13.30
2023-04-20T13:22:46.997Z,13.40
2023-04-20T13:24:01.912Z,13.40
2023-04-20T13:25:06.297Z,13.50
2023-04-20T13:26:09.114Z,13.60
2023-04-20T13:27:12.714Z,13.60
2023-04-20T13:28:16.200Z,13.70
2023-04-20T13:29:18.878Z,13.70
2023-04-20T13:30:24.200Z,13.80
2023-04-20T13:31:28.096Z,13.80
2023-04-20T13:32:30.510Z,13.80
2023-04-20T13:33:34.406Z,13.90
2023-04-20T13:34:36.953Z,13.90
2023-04-20T13:35:41.303Z,13.90
2023-04-20T13:36:44.960Z,13.90
2023-04-20T13:37:47.485Z,13.80
2023-04-20T13:38:54.531Z,13.80
2023-04-20T13:39:59.368Z,13.80
2023-04-20T13:41:01.836Z,13.70
2023-04-20T13:42:05.380Z,13.60
2023-04-20T13:43:07.825Z,13.60
2023-04-20T13:44:15.963Z,13.50
2023-04-20T13:45:18.799Z,13.40
2023-04-20T13:46:22.496Z,13.30
2023-04-20T13:47:25.462Z,13.20
2023-04-20T13:48:28.861Z,13.10
2023-04-20T13:49:31.160Z,13.00
2023-04-20T13:50:34.518Z,12.90
2023-04-20T13:51:36.939Z,12.90
2023-04-20T13:52:40.312Z,12.80
2023-04-20T13:53:43.089Z,12.70
2023-04-20T13:54:46.467Z,12.70
2023-04-20T13:55:51.329Z,12.70
2023-04-20T13:56:53.688Z,12.70
2023-04-20T13:57:57.084Z,12.70
2023-04-20T13:58:59.745Z,12.70
2023-04-20T14:00:05.375Z,12.70
2023-04-20T14:01:08.966Z,12.80
2023-04-20T14:02:12.330Z,12.80
2023-04-20T14:03:15.528Z,12.90
2023-04-20T14:04:19.520Z,13.00
2023-04-20T14:05:22.455Z,13.10
2023-04-20T14:06:26.491Z,13.10
2023-04-20T14:07:28.949Z,13.20
2023-04-20T14:08:32.534Z,13.20